createdAt,value
2019-06-26T00:01:24.786Z,21.78
2019-06-26T00:06:30.332Z,21.71
2019-06-26T00:11:34.921Z,21.63
2019-06-26T00:16:39.398Z,21.61
2019-06-26T00:21:43.912Z,21.49
2019-06-26T00:26:48.392Z,21.47
2019-06-26T00:31:52.884Z,21.27
2019-06-26T00:36:58.506Z,21.36
2019-06-26T00:42:02.988Z,21.26
2019-06-26T00:47:07.599Z,21.20
2019-06-26T00:52:12.073Z,21.16
2019-06-26T00:57:16.566Z,21.30
2019-06-26T01:02:21.614Z,21.18
2019-06-26T01:07:26.164Z,21.05
2019-06-26T01:12:30.684Z,21.16
2019-06-26T01:17:35.173Z,21.13
2019-06-26T01:22:39.679Z,21.17
2019-06-26T01:27:44.299Z,20.98
2019-06-26T01:32:48.833Z,21.01
2019-06-26T01:37:53.327Z,20.90
2019-06-26T01:42:57.881Z,20.86
2019-06-26T01:48:02.563Z,20.90
2019-06-26T01:53:07.100Z,20.90
2019-06-26T01:58:11.579Z,20.83
2019-06-26T02:03:16.054Z,20.77
2019-06-26T02:08:20.543Z,20.84
2019-06-26T02:13:25.020Z,20.85
2019-06-26T02:18:49.852Z,20.78
2019-06-26T02:23:54.488Z,20.64
2019-06-26T02:28:58.965Z,20.74
2019-06-26T02:34:03.451Z,20.65
2019-06-26T02:39:08.141Z,20.60
2019-06-26T02:44:12.733Z,20.54
2019-06-26T02:49:17.207Z,20.67
2019-06-26T02:54:21.682Z,20.51
2019-06-26T02:59:26.169Z,20.59
2019-06-26T03:04:30.650Z,20.64
2019-06-26T03:09:35.141Z,20.56
2019-06-26T03:14:39.632Z,20.48
2019-06-26T03:19:44.122Z,20.54
2019-06-26T03:24:48.593Z,20.51
2019-06-26T03:29:53.157Z,20.51
2019-06-26T03:34:57.642Z,20.57
2019-06-26T03:40:02.311Z,20.63
2019-06-26T03:45:24.255Z,20.76
2019-06-26T03:50:14.587Z,20.80
2019-06-26T03:55:19.408Z,20.86
2019-06-26T04:00:29.745Z,21.02
2019-06-26T04:05:34.954Z,21.15
2019-06-26T04:10:43.051Z,21.16
2019-06-26T04:15:45.673Z,21.24
2019-06-26T04:20:50.155Z,21.47
2019-06-26T04:25:54.639Z,21.55
2019-06-26T04:30:59.136Z,21.94
2019-06-26T04:36:03.657Z,22.09
2019-06-26T04:41:08.181Z,22.25
2019-06-26T04:46:12.668Z,22.55
2019-06-26T04:51:17.182Z,22.73
2019-06-26T04:56:21.745Z,23.03
2019-06-26T05:01:26.237Z,23.40
2019-06-26T05:06:30.699Z,23.57
2019-06-26T05:11:35.243Z,23.80
2019-06-26T05:16:39.813Z,24.03
2019-06-26T05:21:44.351Z,24.37
2019-06-26T05:26:48.905Z,24.89
2019-06-26T05:31:53.386Z,25.12
2019-06-26T05:36:57.868Z,25.50
2019-06-26T05:42:05.717Z,25.88
2019-06-26T05:47:08.535Z,26.27
2019-06-26T05:52:16.459Z,26.55
2019-06-26T05:57:19.327Z,26.81
2019-06-26T06:02:23.802Z,27.32
2019-06-26T06:07:28.282Z,27.66
2019-06-26T06:12:32.749Z,28.04
2019-06-26T06:17:37.663Z,28.47
2019-06-26T06:22:42.220Z,28.35
2019-06-26T06:27:46.827Z,28.98
2019-06-26T06:32:51.335Z,29.19
2019-06-26T06:37:55.819Z,29.58
2019-06-26T06:43:00.293Z,29.67
2019-06-26T06:48:05.223Z,30.12
2019-06-26T06:53:09.704Z,30.64
2019-06-26T06:58:14.208Z,31.57
2019-06-26T07:03:19.669Z,32.09
2019-06-26T07:08:24.132Z,31.88
2019-06-26T07:13:28.650Z,31.92
2019-06-26T07:18:33.213Z,32.28
2019-06-26T07:23:37.684Z,33.40
2019-06-26T07:28:42.163Z,34.52
2019-06-26T07:33:46.631Z,33.62
2019-06-26T07:38:51.101Z,33.85
2019-06-26T07:43:55.772Z,34.38
2019-06-26T07:49:01.280Z,35.15
2019-06-26T07:54:08.625Z,35.72
2019-06-26T07:59:13.996Z,37.81
2019-06-26T08:04:20.473Z,38.28
2019-06-26T08:09:25.065Z,39.67
2019-06-26T08:14:30.222Z,40.56
2019-06-26T08:19:34.869Z,40.20
2019-06-26T08:24:39.340Z,38.69
2019-06-26T08:29:43.824Z,39.75
2019-06-26T08:34:48.286Z,38.59
2019-06-26T08:39:52.750Z,39.18
2019-06-26T08:44:57.217Z,38.90
2019-06-26T08:50:02.129Z,38.68
2019-06-26T08:55:08.988Z,39.89
2019-06-26T09:00:14.809Z,40.85
2019-06-26T09:05:19.579Z,39.16
2019-06-26T09:10:24.113Z,39.28
2019-06-26T09:15:28.582Z,39.40
2019-06-26T09:20:38.604Z,38.47
2019-06-26T09:25:43.087Z,39.25
2019-06-26T09:30:47.563Z,40.48
2019-06-26T09:35:52.032Z,39.88
2019-06-26T09:40:56.518Z,40.92
2019-06-26T09:46:01.010Z,43.23
2019-06-26T09:51:05.487Z,41.53
2019-06-26T09:56:09.963Z,42.24
2019-06-26T10:01:14.578Z,42.34
2019-06-26T10:06:19.055Z,43.12
2019-06-26T10:11:23.521Z,40.79
2019-06-26T10:16:27.991Z,41.74
2019-06-26T10:21:32.584Z,42.44
2019-06-26T10:26:37.185Z,42.81
2019-06-26T10:31:41.656Z,43.56
2019-06-26T10:36:46.252Z,41.64
2019-06-26T10:41:54.604Z,42.70
2019-06-26T10:46:56.918Z,41.44
2019-06-26T10:52:01.392Z,41.91
2019-06-26T10:57:05.942Z,43.99
2019-06-26T11:02:10.462Z,42.69
2019-06-26T11:07:14.936Z,41.35
2019-06-26T11:12:19.404Z,40.69
2019-06-26T11:17:23.891Z,43.37
2019-06-26T11:22:28.367Z,42.71
2019-06-26T11:27:32.854Z,42.45
2019-06-26T11:32:37.499Z,42.15
2019-06-26T11:37:41.961Z,43.15
2019-06-26T11:42:46.440Z,43.67
2019-06-26T11:47:50.985Z,44.43
2019-06-26T11:52:55.488Z,45.22
2019-06-26T11:57:59.971Z,44.53
2019-06-26T12:03:04.922Z,43.62
2019-06-26T12:08:09.532Z,42.70
2019-06-26T12:13:13.994Z,44.29
2019-06-26T12:18:18.645Z,44.18
2019-06-26T12:23:23.200Z,43.81
2019-06-26T12:28:27.675Z,43.74
2019-06-26T12:33:33.498Z,44.46
2019-06-26T12:38:38.054Z,44.62
2019-06-26T12:43:42.577Z,43.20
2019-06-26T12:48:47.028Z,42.41
2019-06-26T12:53:51.513Z,43.51
2019-06-26T12:58:59.668Z,44.39
2019-06-26T13:04:02.165Z,42.32
2019-06-26T13:09:08.279Z,43.18
2019-06-26T13:14:12.766Z,42.93
2019-06-26T13:19:17.543Z,43.08
2019-06-26T13:24:22.027Z,41.69
2019-06-26T13:29:26.558Z,39.51
2019-06-26T13:34:31.033Z,38.50
2019-06-26T13:39:35.634Z,38.40
2019-06-26T13:44:40.144Z,37.38
2019-06-26T13:49:44.818Z,37.79
2019-06-26T13:54:49.333Z,38.08
2019-06-26T13:59:53.892Z,37.95
2019-06-26T14:04:58.369Z,37.49
2019-06-26T14:10:03.270Z,37.30
2019-06-26T14:15:08.753Z,37.50
2019-06-26T14:20:13.704Z,37.25
2019-06-26T14:25:18.353Z,37.25
2019-06-26T14:30:23.403Z,37.14
2019-06-26T14:35:27.829Z,37.08
2019-06-26T14:40:32.314Z,36.88
2019-06-26T14:45:36.779Z,37.02
2019-06-26T14:50:41.321Z,37.27
2019-06-26T14:55:45.945Z,37.79
2019-06-26T15:00:50.416Z,37.88
2019-06-26T15:05:55.041Z,37.52
2019-06-26T15:10:59.503Z,37.65
2019-06-26T15:16:04.047Z,37.22
2019-06-26T15:21:08.529Z,37.05
2019-06-26T15:26:13.192Z,36.78
2019-06-26T15:31:17.699Z,37.01
2019-06-26T15:36:22.169Z,37.14
2019-06-26T15:41:26.649Z,36.93
2019-06-26T15:46:31.230Z,36.88
2019-06-26T15:51:35.694Z,36.53
2019-06-26T15:56:40.461Z,36.82
2019-06-26T16:01:45.071Z,36.66
2019-06-26T16:06:49.547Z,36.69
2019-06-26T16:11:54.005Z,36.86
2019-06-26T16:17:00.121Z,36.67
2019-06-26T16:22:04.930Z,36.91
2019-06-26T16:27:09.398Z,36.63
2019-06-26T16:32:14.105Z,36.63
2019-06-26T16:37:18.980Z,36.34
2019-06-26T16:42:25.494Z,36.26
2019-06-26T16:47:29.767Z,36.02
2019-06-26T16:52:47.890Z,35.99
2019-06-26T16:57:40.437Z,35.99
2019-06-26T17:02:44.971Z,35.91
2019-06-26T17:07:49.446Z,35.91
2019-06-26T17:12:53.935Z,35.63
2019-06-26T17:17:58.539Z,35.63
2019-06-26T17:23:06.006Z,35.43
2019-06-26T17:28:09.358Z,35.22
2019-06-26T17:33:13.835Z,35.22
2019-06-26T17:38:18.368Z,35.09
2019-06-26T17:43:22.831Z,34.94
2019-06-26T17:48:27.311Z,34.91
2019-06-26T17:53:31.939Z,34.81
2019-06-26T17:58:36.484Z,34.47
2019-06-26T18:03:41.022Z,34.43
2019-06-26T18:08:45.500Z,34.11
2019-06-26T18:13:49.972Z,34.00
2019-06-26T18:18:54.553Z,34.06
2019-06-26T18:23:59.060Z,33.68
2019-06-26T18:29:03.578Z,33.56
2019-06-26T18:34:09.176Z,33.55
2019-06-26T18:39:13.661Z,33.35
2019-06-26T18:44:18.149Z,33.05
2019-06-26T18:49:22.736Z,32.81
2019-06-26T18:54:27.412Z,32.67
2019-06-26T18:59:32.875Z,32.41
2019-06-26T19:04:37.367Z,32.21
2019-06-26T19:09:41.952Z,32.17
2019-06-26T19:14:46.585Z,32.14
2019-06-26T19:19:51.898Z,31.74
2019-06-26T19:24:57.602Z,31.41
2019-06-26T19:30:02.186Z,31.38
2019-06-26T19:35:18.085Z,31.07
2019-06-26T19:40:14.581Z,31.10
2019-06-26T19:45:19.614Z,31.00
2019-06-26T19:50:24.102Z,30.70
2019-06-26T19:55:28.583Z,30.72
2019-06-26T20:00:33.058Z,30.72
2019-06-26T20:05:37.552Z,30.43
2019-06-26T20:10:42.070Z,30.17
2019-06-26T20:15:46.548Z,30.20
2019-06-26T20:20:52.125Z,30.11
2019-06-26T20:25:56.605Z,29.73
2019-06-26T20:31:01.100Z,29.86
2019-06-26T20:36:05.577Z,29.50
2019-06-26T20:41:10.173Z,29.45
2019-06-26T20:46:15.648Z,29.56
2019-06-26T20:51:21.163Z,29.23
2019-06-26T20:56:25.915Z,29.10
2019-06-26T21:01:30.576Z,29.13
2019-06-26T21:06:35.130Z,28.87
2019-06-26T21:11:39.782Z,28.79
2019-06-26T21:16:44.314Z,28.55
2019-06-26T21:21:48.807Z,28.53
2019-06-26T21:26:53.473Z,28.55
2019-06-26T21:31:57.988Z,28.18
2019-06-26T21:37:02.551Z,27.83
2019-06-26T21:42:07.086Z,27.67
2019-06-26T21:47:11.644Z,27.50
2019-06-26T21:52:16.107Z,27.44
2019-06-26T21:57:20.595Z,27.49
2019-06-26T22:02:43.420Z,27.35
2019-06-26T22:07:49.630Z,26.95
2019-06-26T22:13:01.454Z,26.81
2019-06-26T22:18:06.107Z,27.13
2019-06-26T22:23:10.666Z,26.99
2019-06-26T22:28:15.169Z,26.97
2019-06-26T22:33:19.643Z,26.74
2019-06-26T22:38:24.163Z,26.61
2019-06-26T22:43:28.646Z,26.51
2019-06-26T22:48:33.115Z,26.31
2019-06-26T22:53:37.591Z,26.83
2019-06-26T22:58:42.062Z,26.79
2019-06-26T23:03:46.544Z,26.89
2019-06-26T23:08:51.020Z,26.76
2019-06-26T23:13:56.621Z,26.13
2019-06-26T23:19:01.099Z,25.86
2019-06-26T23:24:05.709Z,25.63
2019-06-26T23:29:10.262Z,25.51
2019-06-26T23:34:14.754Z,25.63
2019-06-26T23:39:19.256Z,25.61
2019-06-26T23:44:23.738Z,25.80
2019-06-26T23:49:28.212Z,25.79
2019-06-26T23:54:32.792Z,25.85
2019-06-26T23:59:38.290Z,25.86
